Time;durP1;ratioP1;P1;durP2;ratioP2;P2;SDS_P1;SDS_P2;PMS_P1;PMS_P2;Temp;Humidity;BMP_temperature;BMP_pressure;BME280_temperature;BME280_humidity;BME280_pressure;Samples;Min_cycle;Max_cycle;Signal;HPM_P1;HPM_P2
2022/01/15 00:00:15;;;;;;;2.67;2.47;;;2.40;98.20;;;;;;4975801;28;20477;-72
2022/01/15 00:02:41;;;;;;;1.67;1.47;;;2.40;98.20;;;;;;4993084;28;20490;-72
2022/01/15 00:05:09;;;;;;;1.70;1.60;;;2.40;98.20;;;;;;4976690;28;20465;-72
2022/01/15 00:07:36;;;;;;;1.67;1.43;;;2.40;98.20;;;;;;4982989;28;20866;-72
2022/01/15 00:10:03;;;;;;;1.70;1.60;;;2.40;98.20;;;;;;4985435;28;20465;-73
2022/01/15 00:12:37;;;;;;;2.37;2.17;;;2.40;98.20;;;;;;4999537;28;20546;-72
2022/01/15 00:15:05;;;;;;;1.70;1.60;;;2.30;98.20;;;;;;4984057;28;20835;-72
2022/01/15 00:17:45;;;;;;;1.70;1.60;;;2.30;98.20;;;;;;4997830;28;20490;-72
2022/01/15 00:20:16;;;;;;;1.63;1.40;;;2.30;98.20;;;;;;4981887;28;20484;-71
2022/01/15 00:22:42;;;;;;;1.70;1.57;;;2.30;98.20;;;;;;4999018;28;20492;-71
2022/01/15 00:25:10;;;;;;;1.80;1.70;;;2.20;98.20;;;;;;4980098;28;20981;-72
2022/01/15 00:27:37;;;;;;;1.67;1.40;;;2.20;98.20;;;;;;4997310;28;20899;-72
2022/01/15 00:30:04;;;;;;;1.70;1.53;;;2.20;98.20;;;;;;4982683;28;20472;-71
2022/01/15 00:32:33;;;;;;;1.90;1.80;;;2.20;98.20;;;;;;4996365;28;21012;-71
2022/01/15 00:35:00;;;;;;;1.70;1.50;;;2.20;98.20;;;;;;4990057;28;20480;-72
2022/01/15 00:37:30;;;;;;;1.70;1.50;;;2.20;98.20;;;;;;4996144;28;20479;-73
2022/01/15 00:39:58;;;;;;;1.70;1.50;;;2.20;98.20;;;;;;4995717;28;20469;-73
2022/01/15 00:42:24;;;;;;;1.83;1.73;;;2.20;98.20;;;;;;4993813;28;20518;-71
2022/01/15 00:44:51;;;;;;;1.63;1.50;;;2.20;98.20;;;;;;4979900;28;20465;-71
2022/01/15 00:47:18;;;;;;;1.70;1.60;;;2.20;98.20;;;;;;4989709;28;20514;-71
2022/01/15 00:49:46;;;;;;;1.73;1.63;;;2.20;98.20;;;;;;4980651;28;20469;-72
2022/01/15 00:52:13;;;;;;;1.70;1.50;;;2.20;98.20;;;;;;4991105;28;20496;-71
2022/01/15 00:54:40;;;;;;;1.70;1.60;;;2.20;98.20;;;;;;4990990;28;20473;-71
2022/01/15 00:57:07;;;;;;;1.70;1.57;;;2.20;98.20;;;;;;4990018;28;21012;-71
2022/01/15 00:59:33;;;;;;;1.70;1.60;;;2.20;98.20;;;;;;4987341;28;20485;-71
2022/01/15 01:02:00;;;;;;;1.70;1.50;;;2.30;98.20;;;;;;4992837;28;21038;-71
2022/01/15 01:04:27;;;;;;;1.70;1.50;;;2.20;98.20;;;;;;4997286;28;21005;-73
2022/01/15 01:06:55;;;;;;;1.70;1.50;;;2.20;98.20;;;;;;4989019;28;20484;-73
2022/01/15 01:09:24;;;;;;;1.70;1.50;;;2.20;98.20;;;;;;4995924;28;20907;-73
2022/01/15 01:11:56;;;;;;;2.17;1.97;;;2.20;98.20;;;;;;4993647;28;20487;-73
2022/01/15 01:20:09;;;;;;;1.93;1.73;;;2.10;98.20;;;;;;4985869;28;20458;-71
2022/01/15 01:25:20;;;;;;;1.70;1.50;;;2.10;98.20;;;;;;4981552;28;20965;-71
2022/01/15 01:27:50;;;;;;;1.70;1.60;;;2.00;98.20;;;;;;4999626;28;20484;-71
2022/01/15 01:30:22;;;;;;;1.70;1.50;;;2.00;98.20;;;;;;4989128;28;20987;-71
2022/01/15 01:32:54;;;;;;;1.70;1.50;;;2.00;98.20;;;;;;4997518;28;20496;-71
2022/01/15 01:35:33;;;;;;;1.80;1.70;;;2.00;98.20;;;;;;4975786;28;20562;-71
2022/01/15 01:38:07;;;;;;;1.63;1.50;;;2.00;98.20;;;;;;5003268;28;20998;-73
2022/01/15 01:40:40;;;;;;;1.70;1.57;;;2.00;98.20;;;;;;4991529;28;20466;-73
2022/01/15 01:43:26;;;;;;;1.70;1.50;;;1.90;98.20;;;;;;5007472;28;20484;-73
2022/01/15 01:46:09;;;;;;;1.70;1.50;;;2.00;98.20;;;;;;4980332;28;20526;-72
2022/01/15 01:48:36;;;;;;;2.73;2.53;;;2.00;98.20;;;;;;4999779;28;20571;-72
2022/01/15 01:51:03;;;;;;;1.70;1.50;;;1.90;98.20;;;;;;4973747;28;20469;-73
2022/01/15 01:53:31;;;;;;;1.70;1.60;;;1.90;98.20;;;;;;5006169;28;20927;-72
2022/01/15 01:55:58;;;;;;;1.70;1.50;;;1.90;98.20;;;;;;4972351;28;20467;-73
2022/01/15 01:58:25;;;;;;;1.70;1.50;;;1.90;98.20;;;;;;5004934;28;20494;-72
2022/01/15 02:00:52;;;;;;;3.53;3.33;;;1.90;98.20;;;;;;4965733;28;20462;-73
2022/01/15 02:03:19;;;;;;;1.70;1.50;;;1.90;98.20;;;;;;5012778;28;20489;-72
2022/01/15 02:05:46;;;;;;;1.80;1.70;;;1.90;98.20;;;;;;4986965;28;20961;-73
2022/01/15 02:08:13;;;;;;;1.70;1.50;;;1.80;98.20;;;;;;4988592;28;20469;-73
2022/01/15 02:10:42;;;;;;;1.70;1.50;;;1.80;98.20;;;;;;4984194;28;20462;-72
2022/01/15 02:13:10;;;;;;;1.70;1.60;;;1.80;98.20;;;;;;5002675;28;20489;-73
2022/01/15 02:15:37;;;;;;;5.80;5.40;;;1.80;98.20;;;;;;4975042;28;20557;-73
2022/01/15 02:18:03;;;;;;;1.70;1.50;;;1.80;98.20;;;;;;4996727;28;20565;-72
2022/01/15 02:20:59;;;;;;;1.70;1.50;;;1.90;98.20;;;;;;4989981;28;20469;-72
2022/01/15 02:23:36;;;;;;;1.80;1.70;;;1.90;98.20;;;;;;4970409;28;20916;-73
2022/01/15 02:26:05;;;;;;;1.70;1.47;;;1.90;98.20;;;;;;4970117;28;20465;-73
2022/01/15 02:28:34;;;;;;;1.70;1.50;;;1.90;98.20;;;;;;5004616;28;20851;-73
2022/01/15 02:31:04;;;;;;;1.70;1.53;;;1.90;98.20;;;;;;4975954;28;20950;-72
2022/01/15 02:33:31;;;;;;;1.70;1.53;;;1.90;98.20;;;;;;5005154;28;20490;-72
2022/01/15 02:36:00;;;;;;;1.63;1.50;;;1.90;98.20;;;;;;4966570;28;20987;-72
2022/01/15 02:38:27;;;;;;;1.70;1.60;;;1.90;98.20;;;;;;5006070;28;20500;-72
2022/01/15 02:40:54;;;;;;;1.70;1.53;;;1.90;98.20;;;;;;4982907;28;20616;-72
2022/01/15 02:43:28;;;;;;;1.70;1.50;;;2.00;98.20;;;;;;5008338;28;20501;-73
2022/01/15 02:45:56;;;;;;;2.23;2.03;;;1.90;98.20;;;;;;4972305;28;20558;-72
2022/01/15 02:48:24;;;;;;;1.67;1.50;;;1.90;98.20;;;;;;5005767;28;20842;-73
2022/01/15 02:50:51;;;;;;;1.70;1.50;;;1.90;98.20;;;;;;4964935;28;20466;-73
2022/01/15 02:53:20;;;;;;;1.70;1.50;;;1.90;98.20;;;;;;5005135;28;20532;-73
2022/01/15 02:55:49;;;;;;;1.83;1.73;;;1.90;98.20;;;;;;4969075;28;20945;-73
2022/01/15 02:58:18;;;;;;;1.70;1.60;;;1.80;98.20;;;;;;5005541;28;20489;-72
2022/01/15 03:00:46;;;;;;;1.70;1.60;;;1.80;98.20;;;;;;4988079;28;20469;-72
2022/01/15 03:03:13;;;;;;;1.70;1.50;;;1.80;98.20;;;;;;4959221;28;20869;-73
2022/01/15 03:05:40;;;;;;;1.80;1.70;;;1.80;98.20;;;;;;4979659;28;20471;-72
2022/01/15 03:08:07;;;;;;;2.40;2.20;;;1.80;98.20;;;;;;4983044;28;20482;-72
2022/01/15 03:10:35;;;;;;;4.03;3.73;;;1.80;98.20;;;;;;4987417;28;20463;-73
2022/01/15 03:13:09;;;;;;;1.70;1.60;;;1.80;98.20;;;;;;5007670;28;20488;-72
2022/01/15 03:15:36;;;;;;;1.70;1.60;;;1.80;98.20;;;;;;4977000;28;20462;-72
2022/01/15 03:18:03;;;;;;;1.67;1.40;;;1.70;98.20;;;;;;5007286;28;20486;-72
2022/01/15 03:20:30;;;;;;;1.67;1.47;;;1.70;98.20;;;;;;4982053;28;20461;-73
2022/01/15 03:22:56;;;;;;;1.70;1.50;;;1.70;98.20;;;;;;5006232;28;20500;-73
2022/01/15 03:25:23;;;;;;;1.70;1.50;;;1.70;98.20;;;;;;4984846;28;20487;-73
2022/01/15 03:27:51;;;;;;;1.70;1.47;;;1.70;98.20;;;;;;5001895;28;20495;-72
2022/01/15 03:30:18;;;;;;;1.70;1.40;;;1.70;98.20;;;;;;4980456;28;20461;-72
2022/01/15 03:32:45;;;;;;;2.00;1.50;;;1.70;98.20;;;;;;5002865;28;20495;-72
2022/01/15 03:35:13;;;;;;;1.70;1.50;;;1.60;98.20;;;;;;4987120;28;20480;-73
2022/01/15 03:37:41;;;;;;;1.67;1.40;;;1.60;98.20;;;;;;4996581;28;20541;-72
2022/01/15 03:40:10;;;;;;;1.60;1.43;;;1.60;98.20;;;;;;4986052;28;20482;-73
2022/01/15 03:42:37;;;;;;;1.70;1.60;;;1.60;98.20;;;;;;4993840;28;20492;-72
2022/01/15 03:45:06;;;;;;;1.70;1.60;;;1.60;98.20;;;;;;4986752;28;20469;-73
2022/01/15 03:47:33;;;;;;;1.70;1.60;;;1.50;98.20;;;;;;4995601;28;20484;-72
2022/01/15 03:50:00;;;;;;;1.70;1.47;;;1.50;98.20;;;;;;4989721;28;20475;-73
2022/01/15 03:52:27;;;;;;;1.63;1.50;;;1.50;98.20;;;;;;4992491;28;20859;-73
2022/01/15 03:54:54;;;;;;;1.70;1.60;;;1.50;98.20;;;;;;4981196;28;20489;-72
2022/01/15 03:57:20;;;;;;;1.73;1.63;;;1.50;98.20;;;;;;4994727;28;20471;-72
2022/01/15 03:59:47;;;;;;;1.70;1.50;;;1.50;98.20;;;;;;4984893;28;20485;-72
2022/01/15 04:02:15;;;;;;;1.83;1.70;;;1.50;98.20;;;;;;5005662;28;20496;-72
2022/01/15 04:04:42;;;;;;;1.77;1.67;;;1.50;98.20;;;;;;4980733;28;20805;-73
2022/01/15 04:07:09;;;;;;;1.73;1.53;;;1.50;98.20;;;;;;4995944;28;20510;-73
2022/01/15 04:09:37;;;;;;;1.70;1.60;;;1.50;98.20;;;;;;5000494;28;20744;-72
2022/01/15 04:12:04;;;;;;;1.80;1.70;;;1.50;98.20;;;;;;5002937;28;20882;-73
2022/01/15 04:14:31;;;;;;;1.70;1.50;;;1.50;98.20;;;;;;5002216;28;20461;-72
2022/01/15 04:16:57;;;;;;;1.80;1.70;;;1.50;98.20;;;;;;4997084;28;20479;-73
2022/01/15 04:19:28;;;;;;;1.83;1.73;;;1.50;98.20;;;;;;4994422;28;20497;-73
2022/01/15 04:21:54;;;;;;;1.70;1.60;;;1.50;98.20;;;;;;4989205;28;21027;-73
2022/01/15 04:24:21;;;;;;;1.70;1.40;;;1.50;98.20;;;;;;5004632;28;20464;-73
2022/01/15 04:26:48;;;;;;;1.70;1.60;;;1.50;98.20;;;;;;4991610;28;20648;-72
2022/01/15 04:29:15;;;;;;;1.70;1.50;;;1.50;98.20;;;;;;4993733;28;20461;-72
2022/01/15 04:31:48;;;;;;;1.70;1.60;;;1.50;98.20;;;;;;4983516;28;20483;-72
2022/01/15 04:34:16;;;;;;;1.70;1.57;;;1.50;98.20;;;;;;5005142;28;20500;-72
2022/01/15 04:36:44;;;;;;;1.63;1.50;;;1.50;98.20;;;;;;4983547;28;21161;-73
2022/01/15 04:39:11;;;;;;;1.63;1.50;;;1.50;98.20;;;;;;4997398;28;20606;-72
2022/01/15 04:41:39;;;;;;;1.67;1.50;;;1.50;98.20;;;;;;4986929;28;20483;-72
2022/01/15 04:44:06;;;;;;;1.67;1.40;;;1.50;98.20;;;;;;5010608;28;20982;-73
2022/01/15 04:46:33;;;;;;;1.73;1.63;;;1.50;98.20;;;;;;4979789;28;20487;-72
2022/01/15 04:49:00;;;;;;;1.80;1.70;;;1.50;98.20;;;;;;4994057;28;20454;-72
2022/01/15 04:51:27;;;;;;;1.80;1.70;;;1.50;98.20;;;;;;4978089;28;20487;-73
2022/01/15 04:53:55;;;;;;;2.73;2.53;;;1.50;98.20;;;;;;4999171;28;20482;-73
2022/01/15 04:56:22;;;;;;;1.70;1.50;;;1.50;98.20;;;;;;4978788;28;20476;-72
2022/01/15 04:58:49;;;;;;;1.70;1.60;;;1.50;98.20;;;;;;5004260;28;20493;-72
2022/01/15 05:01:16;;;;;;;1.80;1.70;;;1.60;98.20;;;;;;4983055;28;20486;-73
2022/01/15 05:03:43;;;;;;;1.70;1.50;;;1.60;98.20;;;;;;5007763;28;20498;-72
2022/01/15 05:06:10;;;;;;;1.63;1.50;;;1.60;98.20;;;;;;4981248;28;20494;-72
2022/01/15 05:08:36;;;;;;;1.70;1.57;;;1.60;98.20;;;;;;5007184;28;20465;-72
2022/01/15 05:11:13;;;;;;;1.70;1.50;;;1.60;98.20;;;;;;4986350;28;20943;-72
2022/01/15 05:13:39;;;;;;;1.77;1.67;;;1.60;98.20;;;;;;5012035;28;20487;-72
2022/01/15 05:16:07;;;;;;;28.20;19.27;;;1.70;98.20;;;;;;4979053;28;20464;-73
2022/01/15 05:18:34;;;;;;;1.70;1.60;;;1.70;98.20;;;;;;5016593;28;20491;-73
2022/01/15 05:21:01;;;;;;;1.63;1.40;;;1.70;98.20;;;;;;4975326;28;20470;-73
2022/01/15 05:23:27;;;;;;;1.90;1.67;;;1.70;98.20;;;;;;5010705;28;20492;-72
2022/01/15 05:25:54;;;;;;;1.73;1.63;;;1.70;98.20;;;;;;4975694;28;20468;-72
2022/01/15 05:28:22;;;;;;;1.70;1.60;;;1.70;98.20;;;;;;5009599;28;20458;-72
2022/01/15 05:30:49;;;;;;;1.70;1.50;;;1.70;98.20;;;;;;4966035;28;20465;-73
2022/01/15 05:33:16;;;;;;;1.70;1.57;;;1.70;98.20;;;;;;5010729;28;20486;-73
2022/01/15 05:35:43;;;;;;;1.70;1.40;;;1.70;98.20;;;;;;4975285;28;20472;-72
2022/01/15 05:38:09;;;;;;;1.67;1.40;;;1.70;98.20;;;;;;4996494;28;20489;-73
2022/01/15 05:40:37;;;;;;;1.70;1.50;;;1.70;98.20;;;;;;4985408;28;20489;-73
2022/01/15 05:43:03;;;;;;;1.80;1.70;;;1.70;98.20;;;;;;5002132;28;20562;-72
2022/01/15 05:45:32;;;;;;;1.80;1.70;;;1.80;98.20;;;;;;4989674;28;20500;-72
2022/01/15 05:47:58;;;;;;;1.70;1.50;;;1.80;98.20;;;;;;4997472;28;20483;-72
2022/01/15 05:50:25;;;;;;;1.63;1.40;;;1.80;98.20;;;;;;4980138;28;20465;-73
2022/01/15 05:52:52;;;;;;;1.70;1.50;;;1.90;98.20;;;;;;4998278;28;20499;-72
2022/01/15 05:55:19;;;;;;;1.70;1.50;;;1.90;98.20;;;;;;4979266;28;20865;-72
2022/01/15 05:57:45;;;;;;;1.70;1.50;;;1.90;98.20;;;;;;5003547;28;20479;-72
2022/01/15 06:00:13;;;;;;;2.93;2.73;;;1.90;98.20;;;;;;4974466;28;20490;-73
2022/01/15 06:02:41;;;;;;;1.80;1.70;;;1.90;98.20;;;;;;4980693;28;20493;-72
2022/01/15 06:05:09;;;;;;;1.70;1.50;;;1.80;98.20;;;;;;4973887;28;20989;-73
2022/01/15 06:07:36;;;;;;;1.70;1.47;;;1.80;98.20;;;;;;5002164;28;20482;-73
2022/01/15 06:10:03;;;;;;;1.70;1.60;;;1.80;98.20;;;;;;4989356;28;20461;-73
2022/01/15 06:12:33;;;;;;;1.70;1.50;;;1.80;98.20;;;;;;4997929;28;20504;-73
2022/01/15 06:15:00;;;;;;;1.63;1.40;;;1.80;98.20;;;;;;4979447;28;20465;-73
2022/01/15 06:17:27;;;;;;;1.70;1.50;;;1.70;98.20;;;;;;4996655;28;20478;-73
2022/01/15 06:19:55;;;;;;;1.70;1.50;;;1.70;98.20;;;;;;4985548;28;20501;-72
2022/01/15 06:22:22;;;;;;;1.70;1.50;;;1.60;98.20;;;;;;4991839;28;20496;-72
2022/01/15 06:24:48;;;;;;;1.70;1.50;;;1.60;98.20;;;;;;4987601;28;20464;-73
2022/01/15 06:27:18;;;;;;;1.70;1.53;;;1.60;98.20;;;;;;4995539;28;20480;-72
2022/01/15 06:29:44;;;;;;;1.83;1.73;;;1.60;98.20;;;;;;4981671;28;20484;-73
2022/01/15 06:32:12;;;;;;;1.70;1.60;;;1.60;98.20;;;;;;4995326;28;20473;-73
2022/01/15 06:34:39;;;;;;;1.70;1.50;;;1.60;98.20;;;;;;5000489;28;20841;-73
2022/01/15 06:37:08;;;;;;;1.70;1.60;;;1.50;98.20;;;;;;4990439;28;20503;-73
2022/01/15 06:39:35;;;;;;;1.80;1.70;;;1.50;98.20;;;;;;4997472;28;20974;-73
2022/01/15 06:42:02;;;;;;;1.70;1.50;;;1.50;98.20;;;;;;4988213;28;20888;-73
2022/01/15 06:44:29;;;;;;;1.70;1.60;;;1.50;98.20;;;;;;4987813;28;20480;-74
2022/01/15 06:46:56;;;;;;;1.70;1.50;;;1.50;98.20;;;;;;4979297;28;20487;-72
2022/01/15 06:49:23;;;;;;;1.63;1.43;;;1.50;98.20;;;;;;4984547;28;20464;-73
2022/01/15 06:51:50;;;;;;;1.90;1.70;;;1.50;98.20;;;;;;4989037;28;20486;-73
2022/01/15 06:54:18;;;;;;;1.70;1.50;;;1.50;98.20;;;;;;4994934;28;20480;-73
2022/01/15 06:56:44;;;;;;;1.70;1.50;;;1.50;98.20;;;;;;4982181;28;20884;-73
2022/01/15 06:59:11;;;;;;;1.80;1.70;;;1.40;98.20;;;;;;4996902;28;20990;-73
2022/01/15 07:01:38;;;;;;;1.87;1.77;;;1.50;98.20;;;;;;4979511;28;20478;-73
2022/01/15 07:04:05;;;;;;;1.70;1.60;;;1.50;98.20;;;;;;5000028;28;20489;-73
2022/01/15 07:06:32;;;;;;;1.70;1.50;;;1.40;98.20;;;;;;4988203;28;20478;-73
2022/01/15 07:08:58;;;;;;;1.70;1.50;;;1.50;98.20;;;;;;4995705;28;20477;-72
2022/01/15 07:11:27;;;;;;;1.70;1.60;;;1.40;98.20;;;;;;4998614;28;20583;-73
2022/01/15 07:13:54;;;;;;;1.70;1.60;;;1.40;98.20;;;;;;4993791;28;20740;-73
2022/01/15 07:16:20;;;;;;;1.70;1.50;;;1.40;98.20;;;;;;4976776;28;20912;-72
2022/01/15 07:18:47;;;;;;;1.70;1.50;;;1.40;98.20;;;;;;4994487;28;20473;-72
2022/01/15 07:21:14;;;;;;;1.70;1.50;;;1.40;98.20;;;;;;4986551;28;20486;-73
2022/01/15 07:23:41;;;;;;;1.70;1.60;;;1.40;98.20;;;;;;5001166;28;20485;-72
2022/01/15 07:26:07;;;;;;;1.70;1.50;;;1.40;98.20;;;;;;4977162;28;20477;-72
2022/01/15 07:28:35;;;;;;;1.70;1.50;;;1.40;98.20;;;;;;4997470;28;20469;-72
2022/01/15 07:31:02;;;;;;;1.70;1.50;;;1.40;98.20;;;;;;4977841;28;20466;-72
2022/01/15 07:33:29;;;;;;;1.70;1.60;;;1.40;98.20;;;;;;5001894;28;20485;-73
2022/01/15 07:35:56;;;;;;;1.87;1.77;;;1.40;98.20;;;;;;4968089;28;20465;-73
2022/01/15 07:38:23;;;;;;;1.70;1.50;;;1.50;98.20;;;;;;5005220;28;20469;-72
2022/01/15 07:40:53;;;;;;;1.70;1.60;;;1.50;98.20;;;;;;4973097;28;20489;-73
2022/01/15 07:43:20;;;;;;;1.70;1.60;;;1.50;98.20;;;;;;5015170;28;20485;-72
2022/01/15 07:45:48;;;;;;;1.67;1.50;;;1.50;98.20;;;;;;4970539;28;20463;-73
2022/01/15 07:48:15;;;;;;;1.70;1.60;;;1.50;98.20;;;;;;4992660;28;20470;-72
2022/01/15 07:50:42;;;;;;;2.20;2.00;;;1.50;98.20;;;;;;4977645;28;20560;-73
2022/01/15 07:53:09;;;;;;;1.70;1.50;;;1.50;98.20;;;;;;5010688;28;20499;-73
2022/01/15 07:55:36;;;;;;;1.70;1.50;;;1.50;98.20;;;;;;4975611;28;20461;-73
2022/01/15 07:58:03;;;;;;;1.70;1.60;;;1.50;98.20;;;;;;5010878;28;20482;-73
2022/01/15 08:00:30;;;;;;;1.70;1.60;;;1.50;98.20;;;;;;4977425;28;20490;-73
2022/01/15 08:02:59;;;;;;;1.80;1.70;;;1.50;98.20;;;;;;5003682;28;20686;-73
2022/01/15 08:05:25;;;;;;;1.70;1.50;;;1.50;98.20;;;;;;4982451;28;20988;-73
2022/01/15 08:07:52;;;;;;;1.70;1.53;;;1.50;98.20;;;;;;4982659;28;20488;-73
2022/01/15 08:10:19;;;;;;;1.63;1.50;;;1.50;98.20;;;;;;4985222;28;20849;-73
2022/01/15 08:12:48;;;;;;;1.70;1.60;;;1.50;98.20;;;;;;5001885;28;20542;-73
2022/01/15 08:15:16;;;;;;;1.70;1.60;;;1.50;98.20;;;;;;4980913;28;20965;-73
2022/01/15 08:17:43;;;;;;;1.70;1.60;;;1.60;98.20;;;;;;4997310;28;20488;-73
2022/01/15 08:20:13;;;;;;;1.70;1.50;;;1.60;98.20;;;;;;4987064;28;20877;-72
2022/01/15 08:22:40;;;;;;;1.67;1.50;;;1.60;98.20;;;;;;4985165;28;20499;-72
2022/01/15 08:25:08;;;;;;;1.70;1.60;;;1.60;98.20;;;;;;4982442;28;20464;-72
2022/01/15 08:27:34;;;;;;;1.70;1.50;;;1.60;98.20;;;;;;4975695;28;20487;-71
2022/01/15 08:30:01;;;;;;;1.70;1.50;;;1.60;98.20;;;;;;4981650;28;20467;-72
2022/01/15 08:32:28;;;;;;;3.10;2.80;;;1.60;98.20;;;;;;4992030;28;20488;-72
2022/01/15 08:34:55;;;;;;;1.80;1.70;;;1.60;98.20;;;;;;4972077;28;20483;-72
2022/01/15 08:37:23;;;;;;;1.67;1.50;;;1.70;98.20;;;;;;4999939;28;20554;-72
2022/01/15 08:39:50;;;;;;;2.47;2.30;;;1.70;98.20;;;;;;4987568;28;20965;-72
2022/01/15 08:42:17;;;;;;;1.70;1.50;;;1.70;98.20;;;;;;4983884;28;20482;-71
2022/01/15 08:44:45;;;;;;;1.70;1.60;;;1.70;98.20;;;;;;4975609;28;21216;-72
2022/01/15 08:47:12;;;;;;;1.70;1.60;;;1.70;98.20;;;;;;4986806;28;20487;-72
2022/01/15 08:49:39;;;;;;;1.70;1.50;;;1.80;98.20;;;;;;4983561;28;20912;-72
2022/01/15 08:52:07;;;;;;;4.97;4.50;;;1.70;98.20;;;;;;4977650;28;20485;-72
2022/01/15 08:54:35;;;;;;;1.70;1.50;;;1.80;98.20;;;;;;4984808;28;20466;-72
2022/01/15 08:57:03;;;;;;;1.70;1.60;;;1.80;98.20;;;;;;4989558;28;20483;-72
2022/01/15 08:59:29;;;;;;;1.70;1.50;;;1.80;98.20;;;;;;4990374;28;20499;-72
2022/01/15 09:01:59;;;;;;;1.67;1.50;;;1.80;98.20;;;;;;4974688;28;20488;-72
2022/01/15 09:04:26;;;;;;;1.60;1.40;;;1.90;98.20;;;;;;4983315;28;20483;-72
2022/01/15 09:06:53;;;;;;;1.67;1.50;;;1.90;98.20;;;;;;4978478;28;20484;-72
2022/01/15 09:09:19;;;;;;;1.80;1.60;;;1.90;98.20;;;;;;4986437;28;20955;-72
2022/01/15 09:11:48;;;;;;;4.43;4.13;;;1.90;98.20;;;;;;4982341;28;20477;-72
2022/01/15 09:14:14;;;;;;;1.70;1.50;;;2.00;98.20;;;;;;4981784;28;20563;-71
2022/01/15 09:16:41;;;;;;;1.70;1.50;;;2.00;98.20;;;;;;4970030;28;20748;-72
2022/01/15 09:19:08;;;;;;;1.70;1.60;;;2.00;98.20;;;;;;4986121;28;20879;-72
2022/01/15 09:21:35;;;;;;;1.70;1.60;;;2.00;98.20;;;;;;4975712;28;20489;-72
2022/01/15 09:24:02;;;;;;;1.80;1.70;;;2.00;98.20;;;;;;4987975;28;20493;-72
2022/01/15 09:26:47;;;;;;;1.70;1.50;;;2.10;98.20;;;;;;4977875;28;20487;-72
2022/01/15 09:32:02;;;;;;;1.80;1.70;;;2.10;98.20;;;;;;4989609;28;21293;-72
2022/01/15 09:34:29;;;;;;;1.67;1.40;;;2.20;98.20;;;;;;4992227;28;20464;-72
2022/01/15 09:36:56;;;;;;;2.03;1.83;;;2.20;98.20;;;;;;4990016;28;20486;-72
2022/01/15 09:39:23;;;;;;;1.70;1.50;;;2.20;98.20;;;;;;4988417;28;20465;-71
2022/01/15 09:41:54;;;;;;;1.63;1.40;;;2.20;98.20;;;;;;4986877;28;21153;-71
2022/01/15 09:44:25;;;;;;;1.60;1.40;;;2.20;98.20;;;;;;4986715;28;20924;-71
2022/01/15 09:46:53;;;;;;;1.70;1.50;;;2.20;98.20;;;;;;4989204;28;20483;-72
2022/01/15 09:49:23;;;;;;;1.63;1.40;;;2.30;98.20;;;;;;4995503;28;20466;-72
2022/01/15 09:51:51;;;;;;;1.80;1.70;;;2.30;98.20;;;;;;4979021;28;20549;-72
2022/01/15 09:54:19;;;;;;;1.63;1.40;;;2.40;98.20;;;;;;4986602;28;21052;-71
2022/01/15 09:56:49;;;;;;;1.70;1.40;;;2.40;98.20;;;;;;4982874;28;20586;-70
2022/01/15 09:59:16;;;;;;;1.67;1.40;;;2.40;98.20;;;;;;4990728;28;20643;-71
2022/01/15 10:01:46;;;;;;;1.60;1.40;;;2.50;98.20;;;;;;4981129;28;20835;-71
2022/01/15 10:04:14;;;;;;;1.70;1.47;;;2.50;98.20;;;;;;4990605;28;20570;-73
2022/01/15 10:07:10;;;;;;;1.70;1.60;;;2.50;98.20;;;;;;4985310;28;20476;-72
2022/01/15 10:09:38;;;;;;;1.63;1.40;;;2.60;98.20;;;;;;4987895;28;20554;-72
2022/01/15 10:12:07;;;;;;;1.70;1.40;;;2.60;98.20;;;;;;4992416;28;21180;-71
2022/01/15 10:14:36;;;;;;;2.00;1.80;;;2.60;98.20;;;;;;4987151;28;20469;-71
2022/01/15 10:17:20;;;;;;;1.70;1.50;;;2.60;98.20;;;;;;4985960;28;20986;-70
2022/01/15 10:19:48;;;;;;;1.70;1.50;;;2.60;98.20;;;;;;4991940;28;20555;-76
2022/01/15 10:22:18;;;;;;;1.80;1.70;;;2.60;98.20;;;;;;4989153;28;20483;-72
2022/01/15 10:25:05;;;;;;;1.70;1.53;;;2.60;98.20;;;;;;4990299;28;20454;-73
2022/01/15 10:27:34;;;;;;;1.70;1.60;;;2.60;98.20;;;;;;4995214;28;20509;-74
2022/01/15 10:30:05;;;;;;;1.67;1.40;;;2.60;98.20;;;;;;4980494;28;20981;-75
2022/01/15 10:32:37;;;;;;;1.77;1.67;;;2.70;98.20;;;;;;4994154;28;20488;-73
2022/01/15 10:35:12;;;;;;;11.83;5.80;;;2.70;98.20;;;;;;4982578;28;20466;-73
2022/01/15 10:37:50;;;;;;;1.70;1.40;;;2.70;98.20;;;;;;4996694;28;20515;-74
2022/01/15 10:40:19;;;;;;;1.70;1.47;;;2.70;98.20;;;;;;4984405;28;20468;-74
2022/01/15 10:42:58;;;;;;;1.70;1.47;;;2.80;98.20;;;;;;5000805;28;20490;-71
2022/01/15 10:45:26;;;;;;;1.70;1.50;;;2.80;98.20;;;;;;4976106;28;20914;-71
2022/01/15 10:47:57;;;;;;;1.97;1.80;;;2.80;98.20;;;;;;5000927;28;20570;-71
2022/01/15 10:50:27;;;;;;;2.67;2.47;;;2.80;98.20;;;;;;4978032;28;20469;-72
2022/01/15 10:52:56;;;;;;;1.67;1.47;;;2.80;98.20;;;;;;4995753;28;20509;-71
2022/01/15 10:55:29;;;;;;;2.40;2.20;;;2.90;98.20;;;;;;4975800;28;20469;-76
2022/01/15 10:57:58;;;;;;;1.70;1.50;;;2.90;98.20;;;;;;5001068;28;20487;-74
2022/01/15 11:00:28;;;;;;;1.67;1.37;;;2.90;98.20;;;;;;4983809;28;20461;-73
2022/01/15 11:03:00;;;;;;;1.70;1.53;;;2.90;98.20;;;;;;5003773;28;20482;-72
2022/01/15 11:05:34;;;;;;;1.70;1.50;;;2.90;98.20;;;;;;4976847;28;20539;-72
2022/01/15 11:08:23;;;;;;;1.70;1.47;;;3.00;98.20;;;;;;4997438;28;20469;-72
2022/01/15 11:10:53;;;;;;;1.67;1.40;;;3.00;98.20;;;;;;4970100;28;20469;-71
2022/01/15 11:13:23;;;;;;;1.67;1.40;;;3.00;98.20;;;;;;5005800;28;20568;-71
2022/01/15 11:15:54;;;;;;;1.67;1.40;;;3.00;98.20;;;;;;4970046;28;20469;-72
2022/01/15 11:18:25;;;;;;;1.67;1.40;;;3.00;98.20;;;;;;5006482;28;20975;-72
2022/01/15 11:20:54;;;;;;;1.70;1.47;;;3.00;98.20;;;;;;4968884;28;20486;-72
2022/01/15 11:23:23;;;;;;;1.67;1.40;;;3.00;98.20;;;;;;5008326;28;20487;-73
2022/01/15 11:25:51;;;;;;;1.70;1.50;;;3.10;98.20;;;;;;4976560;28;20461;-73
2022/01/15 11:28:21;;;;;;;1.80;1.50;;;3.20;98.20;;;;;;5006460;28;21005;-71
2022/01/15 11:30:51;;;;;;;1.70;1.50;;;3.20;98.20;;;;;;4971911;28;20470;-71
2022/01/15 11:33:37;;;;;;;1.70;1.50;;;3.20;98.20;;;;;;5011811;28;20486;-73
2022/01/15 11:36:05;;;;;;;1.63;1.40;;;3.30;98.20;;;;;;4972857;28;20495;-75
2022/01/15 11:38:40;;;;;;;1.70;1.40;;;3.30;98.20;;;;;;5006315;28;20473;-72
2022/01/15 11:41:22;;;;;;;2.80;2.43;;;3.30;98.20;;;;;;4981095;28;20519;-73
2022/01/15 11:43:50;;;;;;;1.70;1.40;;;3.40;98.20;;;;;;4997172;28;20486;-72
2022/01/15 11:46:32;;;;;;;1.83;1.70;;;3.40;98.20;;;;;;4978297;28;20826;-71
2022/01/15 11:49:39;;;;;;;1.70;1.60;;;3.40;98.20;;;;;;4996787;28;21130;-70
2022/01/15 11:52:33;;;;;;;1.70;1.50;;;3.50;98.20;;;;;;4988726;28;20487;-71
2022/01/15 11:55:24;;;;;;;1.67;1.40;;;3.50;98.20;;;;;;4982682;28;20492;-72
2022/01/15 11:57:54;;;;;;;1.70;1.40;;;3.50;98.20;;;;;;4998002;28;20487;-73
2022/01/15 12:00:27;;;;;;;1.70;1.50;;;3.50;98.20;;;;;;4978216;28;20473;-72
2022/01/15 12:03:16;;;;;;;1.60;1.30;;;3.50;98.20;;;;;;5000507;28;20483;-73
2022/01/15 12:05:46;;;;;;;1.70;1.40;;;3.50;98.20;;;;;;4977964;28;20549;-73
2022/01/15 12:08:27;;;;;;;1.70;1.47;;;3.50;98.20;;;;;;4973221;28;20543;-71
2022/01/15 12:10:56;;;;;;;1.80;1.70;;;3.50;98.20;;;;;;4977132;28;20488;-72
2022/01/15 12:13:24;;;;;;;1.67;1.40;;;3.50;98.20;;;;;;5007808;28;20857;-72
2022/01/15 12:16:37;;;;;;;2.07;1.87;;;3.50;98.20;;;;;;4970160;28;20473;-72
2022/01/15 12:19:06;;;;;;;1.70;1.40;;;3.50;98.20;;;;;;4991230;28;20477;-74
2022/01/15 12:21:44;;;;;;;1.60;1.37;;;3.50;98.20;;;;;;4974209;28;20523;-71
2022/01/15 12:24:41;;;;;;;1.70;1.60;;;3.50;98.20;;;;;;4992187;28;20489;-72
2022/01/15 12:27:11;;;;;;;1.63;1.30;;;3.50;98.20;;;;;;4995037;28;20472;-73
2022/01/15 12:29:39;;;;;;;1.70;1.43;;;3.50;98.20;;;;;;4997529;28;20464;-71
2022/01/15 12:32:07;;;;;;;1.70;1.40;;;3.50;98.20;;;;;;4994170;28;21343;-71
2022/01/15 12:34:34;;;;;;;1.70;1.40;;;3.60;98.20;;;;;;4984956;28;20487;-74
2022/01/15 12:37:02;;;;;;;1.60;1.30;;;3.60;98.20;;;;;;4989991;28;20573;-72
2022/01/15 12:39:37;;;;;;;1.60;1.30;;;3.70;98.20;;;;;;4997436;28;20481;-72
2022/01/15 12:44:53;;;;;;;1.93;1.73;;;3.60;98.20;;;;;;4985074;28;20691;-71
2022/01/15 12:47:23;;;;;;;1.90;1.70;;;3.70;98.20;;;;;;4999607;28;20481;-72
2022/01/15 12:49:59;;;;;;;1.70;1.50;;;3.60;98.20;;;;;;4991402;28;20472;-72
2022/01/15 12:52:28;;;;;;;1.70;1.40;;;3.60;98.20;;;;;;4997748;28;20484;-71
2022/01/15 12:54:58;;;;;;;1.67;1.30;;;3.60;98.20;;;;;;4990837;28;20876;-72
2022/01/15 12:57:40;;;;;;;2.80;2.50;;;3.60;98.20;;;;;;4988169;28;20662;-72
2022/01/15 13:00:09;;;;;;;1.67;1.30;;;3.70;98.20;;;;;;4985840;28;20553;-72
2022/01/15 13:02:36;;;;;;;1.70;1.57;;;3.70;98.20;;;;;;4987993;28;20490;-71
2022/01/15 13:05:04;;;;;;;1.70;1.60;;;3.70;98.20;;;;;;4986460;28;20663;-73
2022/01/15 13:07:53;;;;;;;1.70;1.50;;;3.70;98.20;;;;;;4988647;28;20522;-72
2022/01/15 13:10:32;;;;;;;1.70;1.60;;;3.80;98.20;;;;;;4984630;28;20473;-71
2022/01/15 13:13:01;;;;;;;2.30;2.07;;;3.70;98.20;;;;;;4999538;28;20591;-71
2022/01/15 13:15:30;;;;;;;1.63;1.40;;;3.80;98.20;;;;;;4982056;28;20503;-71
2022/01/15 13:17:57;;;;;;;1.70;1.43;;;3.80;98.20;;;;;;4992810;28;20484;-75
2022/01/15 13:20:33;;;;;;;1.67;1.40;;;3.90;98.20;;;;;;4984188;28;20529;-73
2022/01/15 13:23:01;;;;;;;1.70;1.40;;;3.80;98.20;;;;;;5002103;28;20511;-75